createdAt,value
2023-04-13T00:00:48.464Z,31
2023-04-13T00:01:55.646Z,28
2023-04-13T00:03:02.690Z,29
2023-04-13T00:04:09.583Z,31
2023-04-13T00:05:16.424Z,30
2023-04-13T00:06:23.208Z,30
2023-04-13T00:07:30.083Z,32
2023-04-13T00:08:37.006Z,31
2023-04-13T00:09:43.859Z,31
2023-04-13T00:10:50.655Z,30
2023-04-13T00:11:57.542Z,32
2023-04-13T00:13:04.407Z,31
2023-04-13T00:14:11.282Z,30
2023-04-13T00:15:18.149Z,33
2023-04-13T00:16:25.102Z,30
2023-04-13T00:17:31.978Z,33
2023-04-13T00:18:39.653Z,32
2023-04-13T00:19:46.591Z,33
2023-04-13T00:20:53.417Z,32
2023-04-13T00:22:00.388Z,32
2023-04-13T00:23:07.251Z,34
2023-04-13T00:24:14.069Z,33
2023-04-13T00:25:20.989Z,33
2023-04-13T00:26:27.921Z,30
2023-04-13T00:27:34.848Z,33
2023-04-13T00:28:44.618Z,33
2023-04-13T00:29:51.525Z,32
2023-04-13T00:30:58.462Z,33
2023-04-13T00:32:05.501Z,33
2023-04-13T00:33:12.944Z,32
2023-04-13T00:34:19.878Z,34
2023-04-13T00:35:27.115Z,32
2023-04-13T00:36:37.281Z,33
2023-04-13T00:37:44.358Z,35
2023-04-13T00:38:51.709Z,33
2023-04-13T00:39:58.855Z,33
2023-04-13T00:41:06.136Z,34
2023-04-13T00:42:13.416Z,33
2023-04-13T00:43:22.131Z,35
2023-04-13T00:44:29.334Z,36
2023-04-13T00:45:37.559Z,37
2023-04-13T00:46:45.448Z,36
2023-04-13T00:47:52.765Z,36
2023-04-13T00:48:59.550Z,38
2023-04-13T00:50:06.782Z,38
2023-04-13T00:51:13.827Z,39
2023-04-13T00:52:20.895Z,39
2023-04-13T00:53:29.202Z,36
2023-04-13T00:54:36.296Z,36
2023-04-13T00:55:43.508Z,40
2023-04-13T00:56:51.293Z,38
2023-04-13T00:57:58.720Z,36
2023-04-13T00:59:06.119Z,35
2023-04-13T01:00:16.061Z,38
2023-04-13T01:01:23.760Z,36
2023-04-13T01:02:31.345Z,40
2023-04-13T01:03:38.623Z,38
2023-04-13T01:04:45.575Z,38
2023-04-13T01:05:52.739Z,38
2023-04-13T01:07:09.947Z,39
2023-04-13T01:08:26.335Z,38
2023-04-13T01:09:33.813Z,39
2023-04-13T01:10:48.659Z,38
2023-04-13T01:11:58.815Z,42
2023-04-13T01:13:06.407Z,38
2023-04-13T01:14:13.912Z,38
2023-04-13T01:15:26.219Z,39
2023-04-13T01:16:33.317Z,38
2023-04-13T01:17:43.497Z,38
2023-04-13T01:18:50.821Z,40
2023-04-13T01:19:57.826Z,38
2023-04-13T01:21:10.358Z,40
2023-04-13T01:22:18.035Z,38
2023-04-13T01:23:25.200Z,39
2023-04-13T01:24:40.323Z,37
2023-04-13T01:25:53.211Z,40
2023-04-13T01:27:02.951Z,40
2023-04-13T01:28:10.072Z,40
2023-04-13T01:29:19.603Z,39
2023-04-13T01:30:26.643Z,40
2023-04-13T01:31:34.771Z,40
2023-04-13T01:32:41.961Z,38
2023-04-13T01:33:49.282Z,40
2023-04-13T01:34:56.455Z,38
2023-04-13T01:36:03.505Z,41
2023-04-13T01:37:11.872Z,37
2023-04-13T01:38:18.815Z,38
2023-04-13T01:39:25.746Z,36
2023-04-13T01:40:32.712Z,35
2023-04-13T01:41:42.559Z,37
2023-04-13T01:42:49.628Z,37
2023-04-13T01:43:56.824Z,39
2023-04-13T01:45:03.695Z,36
2023-04-13T01:46:16.870Z,38
2023-04-13T01:47:23.909Z,37
2023-04-13T01:48:30.966Z,36
2023-04-13T01:49:37.795Z,37
2023-04-13T01:50:44.854Z,36
2023-04-13T01:51:52.131Z,37
2023-04-13T01:52:58.991Z,39
2023-04-13T01:54:14.391Z,39
2023-04-13T01:55:21.583Z,38
2023-04-13T01:56:28.431Z,41
2023-04-13T01:57:35.404Z,39
2023-04-13T01:58:42.235Z,40
2023-04-13T01:59:49.119Z,41
2023-04-13T02:00:56.321Z,43
2023-04-13T02:02:03.131Z,44
2023-04-13T02:03:10.180Z,42
2023-04-13T02:04:17.178Z,42
2023-04-13T02:05:24.113Z,43
2023-04-13T02:06:31.890Z,42
2023-04-13T02:07:38.724Z,41
2023-04-13T02:08:45.805Z,40
2023-04-13T02:09:52.623Z,43
2023-04-13T02:10:59.447Z,42
2023-04-13T02:12:06.348Z,40
2023-04-13T02:13:13.528Z,41
2023-04-13T02:14:20.524Z,46
2023-04-13T02:15:27.427Z,43
2023-04-13T02:16:34.341Z,44
2023-04-13T02:17:41.248Z,42
2023-04-13T02:18:48.254Z,41
2023-04-13T02:19:56.065Z,41
2023-04-13T02:21:02.987Z,40
2023-04-13T02:22:12.927Z,44
2023-04-13T02:23:19.731Z,45
2023-04-13T02:24:26.560Z,41
2023-04-13T02:25:33.699Z,42
2023-04-13T02:26:40.750Z,43
2023-04-13T02:27:47.591Z,42
2023-04-13T02:28:54.640Z,39
2023-04-13T02:30:02.318Z,42
2023-04-13T02:31:10.805Z,38
2023-04-13T02:32:17.596Z,41
2023-04-13T02:33:24.459Z,39
2023-04-13T02:34:31.321Z,42
2023-04-13T02:35:38.235Z,39
2023-04-13T02:36:45.010Z,40
2023-04-13T02:37:51.811Z,39
2023-04-13T02:38:58.716Z,39
2023-04-13T02:40:05.552Z,38
2023-04-13T02:41:12.592Z,39
2023-04-13T02:42:19.333Z,38
2023-04-13T02:43:26.165Z,38
2023-04-13T02:44:33.108Z,39
2023-04-13T02:45:42.519Z,39
2023-04-13T02:46:49.279Z,36
2023-04-13T02:47:56.117Z,36
2023-04-13T02:49:02.862Z,38
2023-04-13T02:50:09.702Z,38
2023-04-13T02:51:16.628Z,36
2023-04-13T02:52:23.496Z,36
2023-04-13T02:53:30.320Z,35
2023-04-13T02:54:37.132Z,36
2023-04-13T02:55:43.996Z,37
2023-04-13T02:56:50.921Z,37
2023-04-13T02:57:57.802Z,36
2023-04-13T02:59:04.680Z,36
2023-04-13T03:00:11.516Z,34
2023-04-13T03:01:18.514Z,36
2023-04-13T03:02:25.497Z,36
2023-04-13T03:03:32.337Z,33
2023-04-13T03:04:39.389Z,32
2023-04-13T03:05:46.201Z,34
2023-04-13T03:06:56.105Z,33
2023-04-13T03:08:03.026Z,36
2023-04-13T03:09:10.118Z,34
2023-04-13T03:10:17.118Z,35
2023-04-13T03:11:24.276Z,35
2023-04-13T03:12:31.137Z,34
2023-04-13T03:13:38.013Z,37
2023-04-13T03:14:45.899Z,35
2023-04-13T03:15:52.870Z,36
2023-04-13T03:16:59.739Z,36
2023-04-13T03:18:06.725Z,36
2023-04-13T03:19:13.556Z,35
2023-04-13T03:20:21.218Z,35
2023-04-13T03:21:28.209Z,34
2023-04-13T03:22:35.244Z,35
2023-04-13T03:23:42.138Z,35
2023-04-13T03:24:48.991Z,36
2023-04-13T03:25:55.838Z,36
2023-04-13T03:27:02.643Z,33
2023-04-13T03:28:09.661Z,35
2023-04-13T03:29:16.557Z,39
2023-04-13T03:30:23.453Z,34
2023-04-13T03:31:30.316Z,34
2023-04-13T03:32:37.082Z,34
2023-04-13T03:33:44.071Z,34
2023-04-13T03:34:50.889Z,33
2023-04-13T03:35:57.677Z,36
2023-04-13T03:37:04.479Z,35
2023-04-13T03:38:11.385Z,34
2023-04-13T03:39:18.295Z,36
2023-04-13T03:40:25.218Z,36
2023-04-13T03:41:31.984Z,35
2023-04-13T03:42:38.827Z,36
2023-04-13T03:43:45.615Z,35
2023-04-13T03:44:52.461Z,34
2023-04-13T03:45:59.358Z,35
2023-04-13T03:47:06.233Z,34
2023-04-13T03:48:13.083Z,33
2023-04-13T03:49:19.899Z,34
2023-04-13T03:50:26.871Z,33
2023-04-13T03:51:33.696Z,35
2023-04-13T03:52:40.740Z,32
2023-04-13T03:53:47.526Z,34
2023-04-13T03:54:54.508Z,34
2023-04-13T03:56:01.357Z,36
2023-04-13T03:57:08.459Z,35
2023-04-13T03:58:15.420Z,36
2023-04-13T03:59:22.259Z,36
2023-04-13T04:00:29.126Z,33
2023-04-13T04:01:39.079Z,35
2023-04-13T04:02:48.839Z,34
2023-04-13T04:03:55.778Z,36
2023-04-13T04:05:02.575Z,32
2023-04-13T04:06:09.583Z,33
2023-04-13T04:07:16.460Z,33
2023-04-13T04:08:23.261Z,32
2023-04-13T04:09:30.136Z,33
2023-04-13T04:10:37.156Z,36
2023-04-13T04:11:44.008Z,35
2023-04-13T04:12:50.911Z,30
2023-04-13T04:13:57.889Z,32
2023-04-13T04:15:04.533Z,34
2023-04-13T04:16:11.786Z,31
2023-04-13T04:17:18.513Z,33
2023-04-13T04:18:25.399Z,33
2023-04-13T04:19:32.242Z,35
2023-04-13T04:20:39.092Z,33
2023-04-13T04:21:46.060Z,35
2023-04-13T04:22:52.942Z,34
2023-04-13T04:23:59.995Z,33
2023-04-13T04:25:06.756Z,34
2023-04-13T04:26:13.540Z,33
2023-04-13T04:27:20.592Z,31
2023-04-13T04:28:27.404Z,34
2023-04-13T04:29:34.536Z,32
2023-04-13T04:30:41.192Z,32
2023-04-13T04:31:48.086Z,35
2023-04-13T04:32:55.024Z,34
2023-04-13T04:34:01.939Z,34
2023-04-13T04:35:08.725Z,37
2023-04-13T04:36:15.622Z,34
2023-04-13T04:37:22.443Z,32
2023-04-13T04:38:29.251Z,32
2023-04-13T04:39:36.120Z,36
2023-04-13T04:40:43.029Z,33
2023-04-13T04:41:49.883Z,35
2023-04-13T04:42:59.701Z,34
2023-04-13T04:44:06.559Z,32
2023-04-13T04:45:13.500Z,37
2023-04-13T04:46:20.492Z,38
2023-04-13T04:47:27.340Z,36
2023-04-13T04:48:34.225Z,37
2023-04-13T04:49:41.107Z,36
2023-04-13T04:50:47.950Z,37
2023-04-13T04:51:54.836Z,38
2023-04-13T04:53:01.838Z,38
2023-04-13T04:54:08.483Z,38
2023-04-13T04:55:15.375Z,45
2023-04-13T04:56:22.168Z,42
2023-04-13T04:57:29.688Z,40
2023-04-13T04:58:36.011Z,42
2023-04-13T04:59:42.917Z,41
2023-04-13T05:00:49.798Z,36
2023-04-13T05:01:56.569Z,39
2023-04-13T05:03:03.409Z,37
2023-04-13T05:04:10.212Z,37
2023-04-13T05:05:17.309Z,36
2023-04-13T05:06:23.884Z,38
2023-04-13T05:07:30.682Z,37
2023-04-13T05:08:37.609Z,37
2023-04-13T05:09:44.494Z,35
2023-04-13T05:10:51.338Z,40
2023-04-13T05:11:58.132Z,36
2023-04-13T05:13:04.992Z,38
2023-04-13T05:14:11.948Z,37
2023-04-13T05:15:19.789Z,37
2023-04-13T05:16:26.751Z,41
2023-04-13T05:17:33.553Z,40
2023-04-13T05:18:40.340Z,37
2023-04-13T05:19:47.208Z,40
2023-04-13T05:20:54.098Z,37
2023-04-13T05:22:01.042Z,36
2023-04-13T05:23:07.796Z,41
2023-04-13T05:24:14.536Z,43
2023-04-13T05:25:21.413Z,40
2023-04-13T05:26:28.231Z,42
2023-04-13T05:27:35.196Z,38
2023-04-13T05:28:42.029Z,37
2023-04-13T05:29:48.827Z,37
2023-04-13T05:30:55.643Z,43
2023-04-13T05:32:07.752Z,41
2023-04-13T05:33:14.501Z,38
2023-04-13T05:34:21.272Z,41
2023-04-13T05:35:28.173Z,42
2023-04-13T05:36:35.030Z,40
2023-04-13T05:37:41.828Z,38
2023-04-13T05:38:48.790Z,39
2023-04-13T05:39:55.570Z,42
2023-04-13T05:41:02.471Z,42
2023-04-13T05:42:09.378Z,39
2023-04-13T05:43:16.179Z,42
2023-04-13T05:44:23.126Z,43
2023-04-13T05:45:29.959Z,45
2023-04-13T05:46:36.853Z,49
2023-04-13T05:47:43.684Z,48
2023-04-13T05:48:50.484Z,46
2023-04-13T05:49:57.390Z,47
2023-04-13T05:51:04.326Z,44
2023-04-13T05:52:11.254Z,46
2023-04-13T05:53:18.025Z,42
2023-04-13T05:54:24.839Z,44
2023-04-13T05:55:31.734Z,49
2023-04-13T05:56:38.509Z,48
2023-04-13T05:57:45.405Z,42
2023-04-13T05:58:52.245Z,48
2023-04-13T05:59:59.036Z,48
2023-04-13T06:01:06.049Z,47
2023-04-13T06:02:12.982Z,51
2023-04-13T06:03:19.901Z,45
2023-04-13T06:04:26.722Z,46
2023-04-13T06:05:33.401Z,41
2023-04-13T06:06:40.264Z,43
2023-04-13T06:07:47.260Z,44
2023-04-13T06:08:54.149Z,42
2023-04-13T06:10:01.025Z,46
2023-04-13T06:11:08.066Z,41
2023-04-13T06:12:14.924Z,45
2023-04-13T06:13:21.759Z,46
2023-04-13T06:14:28.555Z,39
2023-04-13T06:15:35.358Z,40
2023-04-13T06:16:42.391Z,40
2023-04-13T06:17:49.399Z,44
2023-04-13T06:18:56.201Z,41
2023-04-13T06:20:02.982Z,40
2023-04-13T06:21:10.179Z,38
2023-04-13T06:22:16.985Z,38
2023-04-13T06:23:23.958Z,39
2023-04-13T06:24:30.718Z,42
2023-04-13T06:25:37.442Z,42
2023-04-13T06:26:44.297Z,43
2023-04-13T06:27:51.160Z,39
2023-04-13T06:28:58.176Z,36
2023-04-13T06:30:04.792Z,32
2023-04-13T06:31:13.482Z,34
2023-04-13T06:32:18.707Z,33
2023-04-13T06:33:25.508Z,30
2023-04-13T06:34:32.425Z,33
2023-04-13T06:35:39.312Z,35
2023-04-13T06:36:46.136Z,32
2023-04-13T06:37:53.958Z,29
2023-04-13T06:39:03.626Z,32
2023-04-13T06:40:10.428Z,33
2023-04-13T06:41:17.322Z,39
2023-04-13T06:42:24.202Z,33
2023-04-13T06:43:30.990Z,37
2023-04-13T06:44:37.878Z,30
2023-04-13T06:45:44.810Z,36
2023-04-13T06:46:51.700Z,30
2023-04-13T06:47:58.730Z,33
2023-04-13T06:49:05.514Z,34
2023-04-13T06:50:12.336Z,29
2023-04-13T06:51:19.184Z,31
2023-04-13T06:52:26.084Z,27
2023-04-13T06:53:32.986Z,30
2023-04-13T06:54:40.089Z,25
2023-04-13T06:55:47.349Z,28
2023-04-13T06:56:54.227Z,27
2023-04-13T06:58:01.313Z,27
2023-04-13T06:59:08.491Z,28
2023-04-13T07:00:26.316Z,28
2023-04-13T07:01:22.034Z,23
2023-04-13T07:02:28.922Z,28
2023-04-13T07:03:35.961Z,26
2023-04-13T07:04:42.764Z,25
2023-04-13T07:05:49.538Z,23
2023-04-13T07:06:56.374Z,27
2023-04-13T07:08:03.210Z,30
2023-04-13T07:09:10.066Z,27
2023-04-13T07:10:17.005Z,39
2023-04-13T07:11:25.154Z,29
2023-04-13T07:12:31.961Z,26
2023-04-13T07:13:38.711Z,25
2023-04-13T07:14:45.507Z,41
2023-04-13T07:15:52.394Z,32
2023-04-13T07:16:59.155Z,31
2023-04-13T07:18:06.064Z,16
2023-04-13T07:19:12.807Z,17
2023-04-13T07:20:19.616Z,17
2023-04-13T07:21:27.122Z,18
2023-04-13T07:22:34.143Z,20
2023-04-13T07:23:41.097Z,17
2023-04-13T07:24:47.859Z,17
2023-04-13T07:25:54.710Z,18
2023-04-13T07:27:01.667Z,19
2023-04-13T07:28:09.421Z,21
2023-04-13T07:29:16.193Z,21
2023-04-13T07:30:23.007Z,19
2023-04-13T07:31:29.856Z,16
2023-04-13T07:32:36.785Z,19
2023-04-13T07:33:43.707Z,20
2023-04-13T07:34:50.626Z,19
2023-04-13T07:35:57.510Z,21
2023-04-13T07:37:04.602Z,16
2023-04-13T07:38:11.619Z,16
2023-04-13T07:39:18.463Z,18
2023-04-13T07:40:25.406Z,22
2023-04-13T07:41:32.736Z,15
2023-04-13T07:42:39.549Z,16
2023-04-13T07:43:46.711Z,15
2023-04-13T07:44:53.613Z,11
2023-04-13T07:46:00.794Z,13
2023-04-13T07:47:13.872Z,23
2023-04-13T07:48:21.506Z,14
2023-04-13T07:49:28.377Z,12
2023-04-13T07:50:35.165Z,10
2023-04-13T07:51:44.642Z,14
2023-04-13T07:52:51.480Z,12
2023-04-13T07:53:58.409Z,13
2023-04-13T07:55:05.261Z,11
2023-04-13T07:56:12.136Z,13
2023-04-13T07:57:19.082Z,14
2023-04-13T07:58:25.923Z,12
2023-04-13T07:59:32.951Z,12
2023-04-13T08:00:39.796Z,18
2023-04-13T08:01:46.662Z,15
2023-04-13T08:02:53.572Z,16
2023-04-13T08:04:00.412Z,11
2023-04-13T08:05:07.484Z,9
2023-04-13T08:06:14.282Z,13
2023-04-13T08:07:21.129Z,17
2023-04-13T08:08:27.959Z,14
2023-04-13T08:09:34.886Z,22
2023-04-13T08:10:41.905Z,17
2023-04-13T08:11:48.763Z,14
2023-04-13T08:12:55.620Z,11
2023-04-13T08:14:03.358Z,13
2023-04-13T08:15:10.111Z,14
2023-04-13T08:16:17.123Z,14
2023-04-13T08:17:23.825Z,11
2023-04-13T08:18:30.591Z,11
2023-04-13T08:19:37.429Z,9
2023-04-13T08:20:44.272Z,10
2023-04-13T08:21:51.326Z,15
2023-04-13T08:22:58.178Z,14
2023-04-13T08:24:06.005Z,15
2023-04-13T08:25:12.819Z,15
2023-04-13T08:26:19.793Z,17
2023-04-13T08:27:26.647Z,14
2023-04-13T08:28:33.532Z,14
2023-04-13T08:29:40.353Z,13
2023-04-13T08:30:47.182Z,14
2023-04-13T08:31:54.170Z,14
2023-04-13T08:33:01.997Z,15
2023-04-13T08:34:08.880Z,15
2023-04-13T08:35:15.717Z,11
2023-04-13T08:36:22.530Z,11
2023-04-13T08:37:29.423Z,13
2023-04-13T08:38:36.861Z,11
2023-04-13T08:39:43.207Z,14
2023-04-13T08:40:50.416Z,11
2023-04-13T08:41:56.948Z,10
2023-04-13T08:43:03.780Z,10
2023-04-13T08:44:10.664Z,10
2023-04-13T08:45:17.506Z,10
2023-04-13T08:46:24.364Z,14
2023-04-13T08:47:31.337Z,11
2023-04-13T08:48:50.337Z,10
2023-04-13T08:49:45.025Z,11
2023-04-13T08:50:51.837Z,12
2023-04-13T08:51:58.661Z,9
2023-04-13T08:53:05.679Z,10
2023-04-13T08:54:12.524Z,10
2023-04-13T08:55:19.329Z,9
2023-04-13T08:56:34.383Z,9
2023-04-13T08:57:33.054Z,10
2023-04-13T08:58:40.121Z,11
2023-04-13T08:59:46.926Z,10
2023-04-13T09:00:53.756Z,9
2023-04-13T09:02:00.672Z,8
2023-04-13T09:03:09.666Z,9
2023-04-13T09:04:15.212Z,9
2023-04-13T09:05:21.950Z,9
2023-04-13T09:06:28.790Z,11
2023-04-13T09:07:35.769Z,11
2023-04-13T09:08:42.631Z,9
2023-04-13T09:09:49.543Z,10
2023-04-13T09:10:59.193Z,10
2023-04-13T09:12:06.026Z,10
2023-04-13T09:13:12.892Z,10
2023-04-13T09:14:19.749Z,11
2023-04-13T09:15:26.609Z,11
2023-04-13T09:16:33.421Z,10
2023-04-13T09:17:43.403Z,10
2023-04-13T09:18:50.208Z,11
2023-04-13T09:19:57.001Z,10
2023-04-13T09:21:14.108Z,10
2023-04-13T09:22:21.772Z,13
2023-04-13T09:23:28.641Z,11
2023-04-13T09:24:35.564Z,8
2023-04-13T09:25:42.354Z,9
2023-04-13T09:26:49.248Z,9
2023-04-13T09:27:56.060Z,12
2023-04-13T09:29:02.887Z,8
2023-04-13T09:30:09.716Z,13
2023-04-13T09:31:16.726Z,10
2023-04-13T09:32:23.491Z,10
2023-04-13T09:33:30.306Z,12
2023-04-13T09:34:37.135Z,10
2023-04-13T09:35:44.083Z,12
2023-04-13T09:36:54.416Z,9
2023-04-13T09:37:57.759Z,9
2023-04-13T09:39:04.591Z,9
2023-04-13T09:40:11.476Z,8
2023-04-13T09:41:18.677Z,9
2023-04-13T09:42:30.832Z,9
2023-04-13T09:43:37.816Z,7
2023-04-13T09:44:44.684Z,8
2023-04-13T09:45:59.486Z,8
2023-04-13T09:47:06.427Z,8
2023-04-13T09:48:13.186Z,10
2023-04-13T09:49:19.952Z,8
2023-04-13T09:50:26.832Z,8
2023-04-13T09:51:33.668Z,11
2023-04-13T09:52:43.543Z,11
2023-04-13T09:53:50.350Z,8
2023-04-13T09:54:57.133Z,11
2023-04-13T09:56:04.073Z,7
2023-04-13T09:57:10.855Z,8
2023-04-13T09:58:17.821Z,8
2023-04-13T09:59:24.818Z,9
2023-04-13T10:00:31.567Z,8
2023-04-13T10:01:38.580Z,9
2023-04-13T10:02:45.596Z,9
2023-04-13T10:03:52.137Z,7
2023-04-13T10:04:58.979Z,7
2023-04-13T10:06:05.807Z,9
2023-04-13T10:07:12.622Z,7
2023-04-13T10:08:24.450Z,7
2023-04-13T10:09:26.384Z,7
2023-04-13T10:10:33.189Z,8
2023-04-13T10:11:39.998Z,7
2023-04-13T10:12:49.290Z,6
2023-04-13T10:13:59.088Z,6
2023-04-13T10:15:06.655Z,6
2023-04-13T10:16:23.895Z,8
2023-04-13T10:17:41.068Z,9
2023-04-13T10:18:53.423Z,8
2023-04-13T10:20:00.233Z,8
2023-04-13T10:21:12.782Z,9
2023-04-13T10:22:19.658Z,9
2023-04-13T10:23:27.846Z,11
2023-04-13T10:24:37.415Z,9
2023-04-13T10:25:44.366Z,8
2023-04-13T10:26:53.865Z,8
2023-04-13T10:28:00.792Z,8
2023-04-13T10:29:07.656Z,9
2023-04-13T10:30:14.517Z,8
2023-04-13T10:31:21.395Z,8
2023-04-13T10:32:38.576Z,7
2023-04-13T10:33:45.421Z,8
2023-04-13T10:34:54.285Z,9
2023-04-13T10:36:01.082Z,8
2023-04-13T10:37:08.212Z,8
2023-04-13T10:38:20.153Z,7
2023-04-13T10:39:26.991Z,11
2023-04-13T10:40:33.831Z,9
2023-04-13T10:41:46.005Z,8
2023-04-13T10:43:00.763Z,7
2023-04-13T10:44:07.749Z,9
2023-04-13T10:45:14.628Z,9
2023-04-13T10:46:29.279Z,8
2023-04-13T10:47:36.163Z,8
2023-04-13T10:48:43.071Z,8
2023-04-13T10:49:49.871Z,8
2023-04-13T10:50:56.718Z,7
2023-04-13T10:52:03.531Z,9
2023-04-13T10:53:10.379Z,9
2023-04-13T10:54:17.272Z,9
2023-04-13T10:55:24.161Z,9
2023-04-13T10:56:30.984Z,8
2023-04-13T10:57:37.807Z,8
2023-04-13T10:58:44.677Z,9
2023-04-13T10:59:57.647Z,7
2023-04-13T11:01:01.162Z,7
2023-04-13T11:02:08.107Z,8
2023-04-13T11:03:15.454Z,7
2023-04-13T11:04:21.891Z,7
2023-04-13T11:05:28.657Z,8
2023-04-13T11:06:35.476Z,8
2023-04-13T11:07:42.330Z,9
2023-04-13T11:08:49.301Z,8
2023-04-13T11:11:03.041Z,11
2023-04-13T11:12:09.902Z,9
2023-04-13T11:13:22.131Z,10
2023-04-13T11:14:29.006Z,10
2023-04-13T11:15:36.735Z,10
2023-04-13T11:16:43.534Z,10
2023-04-13T11:17:50.348Z,11
2023-04-13T11:18:57.538Z,11
2023-04-13T11:20:04.322Z,11
2023-04-13T11:21:11.363Z,10
2023-04-13T11:22:18.195Z,11
2023-04-13T11:23:27.763Z,12
2023-04-13T11:24:34.678Z,13
2023-04-13T11:25:42.487Z,10
2023-04-13T11:26:57.538Z,12
2023-04-13T11:28:04.375Z,10
2023-04-13T11:29:12.074Z,10
2023-04-13T11:30:22.745Z,16
2023-04-13T11:31:29.697Z,15
2023-04-13T11:32:42.376Z,13
2023-04-13T11:33:49.199Z,12
2023-04-13T11:34:56.050Z,12
2023-04-13T11:36:11.198Z,10
2023-04-13T11:37:18.221Z,13
2023-04-13T11:38:25.154Z,12
2023-04-13T11:39:31.960Z,14
2023-04-13T11:40:38.929Z,10
2023-04-13T11:41:45.744Z,10
2023-04-13T11:42:52.540Z,12
2023-04-13T11:43:59.525Z,12
2023-04-13T11:45:06.459Z,12
2023-04-13T11:46:16.929Z,12
2023-04-13T11:47:27.234Z,14
2023-04-13T11:48:34.011Z,10
2023-04-13T11:49:40.870Z,12
2023-04-13T11:50:47.715Z,11
2023-04-13T11:51:54.590Z,12
2023-04-13T11:53:01.597Z,12
2023-04-13T11:54:08.454Z,12
2023-04-13T11:55:23.006Z,12
2023-04-13T11:56:23.208Z,13
2023-04-13T11:57:30.952Z,12
2023-04-13T11:58:37.914Z,11
2023-04-13T11:59:44.891Z,15
2023-04-13T12:00:51.811Z,13
2023-04-13T12:02:03.084Z,15
2023-04-13T12:04:16.545Z,13
2023-04-13T12:05:23.150Z,12
2023-04-13T12:06:32.959Z,10
2023-04-13T12:07:39.938Z,12
2023-04-13T12:08:53.196Z,12
2023-04-13T12:09:58.427Z,11
2023-04-13T12:12:46.053Z,12
2023-04-13T12:13:33.469Z,13
2023-04-13T12:15:43.841Z,12
2023-04-13T12:17:57.217Z,16
2023-04-13T12:18:58.337Z,13
2023-04-13T12:20:09.972Z,12
2023-04-13T12:21:16.877Z,13
2023-04-13T12:22:23.876Z,15
2023-04-13T12:23:40.904Z,13
2023-04-13T12:24:56.805Z,13
2023-04-13T12:26:18.730Z,12
2023-04-13T12:27:16.816Z,12
2023-04-13T12:28:16.447Z,12
2023-04-13T12:29:23.322Z,14
2023-04-13T12:30:30.111Z,13
2023-04-13T12:31:36.970Z,17
2023-04-13T12:32:43.875Z,19
2023-04-13T12:33:53.381Z,11
2023-04-13T12:35:00.182Z,11
2023-04-13T12:36:07.141Z,10
2023-04-13T12:37:15.824Z,14
2023-04-13T12:38:22.573Z,14
2023-04-13T12:39:30.865Z,15
2023-04-13T12:40:37.687Z,15
2023-04-13T12:41:44.574Z,15
2023-04-13T12:42:51.413Z,16
2023-04-13T12:43:58.283Z,13
2023-04-13T12:45:07.743Z,12
2023-04-13T12:46:14.751Z,12
2023-04-13T12:47:21.797Z,13
2023-04-13T12:48:28.562Z,13
2023-04-13T12:49:35.552Z,14
2023-04-13T12:50:43.187Z,13
2023-04-13T12:51:50.124Z,11
2023-04-13T12:52:57.025Z,13
2023-04-13T12:54:03.984Z,8
2023-04-13T12:55:12.199Z,9
2023-04-13T12:56:19.108Z,12
2023-04-13T12:57:26.170Z,9
2023-04-13T12:58:34.739Z,9
2023-04-13T12:59:41.662Z,9
2023-04-13T13:00:48.614Z,10
2023-04-13T13:01:55.410Z,11
2023-04-13T13:03:13.328Z,10
2023-04-13T13:04:11.283Z,9
2023-04-13T13:05:18.071Z,10
2023-04-13T13:06:24.994Z,9
2023-04-13T13:07:31.869Z,10
2023-04-13T13:08:40.133Z,9
2023-04-13T13:09:45.510Z,8
2023-04-13T13:10:52.311Z,8
2023-04-13T13:11:59.157Z,11
2023-04-13T13:13:06.057Z,9
2023-04-13T13:14:12.901Z,9
2023-04-13T13:15:20.571Z,9
2023-04-13T13:16:27.483Z,8
2023-04-13T13:17:34.899Z,9
2023-04-13T13:18:50.196Z,9
2023-04-13T13:19:51.132Z,10
2023-04-13T13:20:58.014Z,9
2023-04-13T13:22:04.927Z,9
2023-04-13T13:23:11.854Z,9
2023-04-13T13:24:18.692Z,8
2023-04-13T13:25:25.695Z,9
2023-04-13T13:26:45.775Z,7
2023-04-13T13:28:49.210Z,7
2023-04-13T13:29:56.100Z,6
2023-04-13T13:31:02.935Z,6
2023-04-13T13:32:10.045Z,6
2023-04-13T13:33:17.064Z,8
2023-04-13T13:34:23.832Z,7
2023-04-13T13:35:30.731Z,7
2023-04-13T13:36:37.617Z,7
2023-04-13T13:37:44.634Z,6
2023-04-13T13:38:51.524Z,7
2023-04-13T13:39:58.399Z,7
2023-04-13T13:41:05.196Z,8
2023-04-13T13:42:11.964Z,7
2023-04-13T13:43:18.928Z,6
2023-04-13T13:44:25.738Z,6
2023-04-13T13:45:32.652Z,8
2023-04-13T13:46:39.490Z,7
2023-04-13T13:47:46.383Z,7
2023-04-13T13:48:53.261Z,9
2023-04-13T13:50:00.078Z,7
2023-04-13T13:51:07.783Z,7
2023-04-13T13:52:13.964Z,7
2023-04-13T13:53:20.788Z,9
2023-04-13T13:54:27.665Z,7
2023-04-13T13:55:34.696Z,7
2023-04-13T13:56:42.515Z,8
2023-04-13T13:57:49.343Z,6
2023-04-13T13:58:56.172Z,8
2023-04-13T14:00:03.084Z,7
2023-04-13T14:01:15.506Z,7
2023-04-13T14:02:23.627Z,6
2023-04-13T14:03:33.563Z,6
2023-04-13T14:04:40.571Z,7
2023-04-13T14:05:47.539Z,9
2023-04-13T14:06:54.388Z,9
2023-04-13T14:08:01.193Z,11
2023-04-13T14:09:08.219Z,19
2023-04-13T14:10:15.161Z,25
2023-04-13T14:11:22.095Z,62
2023-04-13T14:12:28.998Z,27
2023-04-13T14:13:35.960Z,79
2023-04-13T14:14:42.770Z,55
2023-04-13T14:15:49.727Z,88
2023-04-13T14:16:57.293Z,111
2023-04-13T14:18:10.275Z,111
2023-04-13T14:19:11.119Z,111
2023-04-13T14:20:17.965Z,84
2023-04-13T14:21:24.910Z,102
2023-04-13T14:22:31.827Z,84
2023-04-13T14:23:41.414Z,125
2023-04-13T14:24:48.273Z,151
2023-04-13T14:25:55.165Z,80
2023-04-13T14:27:02.064Z,34
2023-04-13T14:28:08.941Z,64
2023-04-13T14:29:15.898Z,106
2023-04-13T14:30:23.149Z,35
2023-04-13T14:31:33.822Z,25
2023-04-13T14:32:43.351Z,31
2023-04-13T14:33:52.318Z,34
2023-04-13T14:34:59.383Z,24
2023-04-13T14:36:06.600Z,28
2023-04-13T14:37:13.539Z,24
2023-04-13T14:38:22.735Z,25
2023-04-13T14:39:29.651Z,19
2023-04-13T14:40:36.481Z,18
2023-04-13T14:41:43.352Z,19
2023-04-13T14:42:50.163Z,18
2023-04-13T14:43:56.943Z,18
2023-04-13T14:45:05.008Z,12
2023-04-13T14:46:12.173Z,11
2023-04-13T14:47:19.169Z,10
2023-04-13T14:48:28.260Z,12
2023-04-13T14:49:35.132Z,16
2023-04-13T14:50:42.026Z,14
2023-04-13T14:51:52.171Z,12
2023-04-13T14:52:59.156Z,14
2023-04-13T14:54:11.267Z,10
2023-04-13T14:55:20.484Z,12
2023-04-13T14:56:28.688Z,13
2023-04-13T14:57:35.580Z,11
2023-04-13T14:58:42.617Z,10
2023-04-13T14:59:49.522Z,10
2023-04-13T15:00:56.479Z,9
2023-04-13T15:02:03.846Z,11
2023-04-13T15:03:14.236Z,9
2023-04-13T15:04:21.654Z,11
2023-04-13T15:05:28.388Z,11
2023-04-13T15:06:43.458Z,9
2023-04-13T15:07:50.520Z,10
2023-04-13T15:08:57.465Z,10
2023-04-13T15:10:04.508Z,10
2023-04-13T15:11:14.098Z,10
2023-04-13T15:12:21.023Z,10
2023-04-13T15:13:30.192Z,9
2023-04-13T15:14:37.188Z,9
2023-04-13T15:15:44.182Z,11
2023-04-13T15:16:53.272Z,10
2023-04-13T15:18:02.518Z,9
2023-04-13T15:19:07.299Z,8
2023-04-13T15:20:14.209Z,9
2023-04-13T15:21:22.604Z,11
2023-04-13T15:22:29.574Z,9
2023-04-13T15:23:39.534Z,9
2023-04-13T15:24:46.466Z,9
2023-04-13T15:25:53.409Z,10
2023-04-13T15:27:03.846Z,10
2023-04-13T15:28:10.710Z,9
2023-04-13T15:29:17.706Z,9
2023-04-13T15:30:24.712Z,10
2023-04-13T15:31:31.810Z,10
2023-04-13T15:32:39.778Z,10
2023-04-13T15:33:46.656Z,10
2023-04-13T15:34:53.560Z,12
2023-04-13T15:36:00.364Z,12
2023-04-13T15:37:07.373Z,11
2023-04-13T15:38:14.339Z,11
2023-04-13T15:39:21.482Z,10
2023-04-13T15:40:32.946Z,11
2023-04-13T15:41:39.808Z,10
2023-04-13T15:42:46.836Z,11
2023-04-13T15:43:54.434Z,11
2023-04-13T15:45:01.340Z,11
2023-04-13T15:46:08.737Z,11
2023-04-13T15:47:20.218Z,12
2023-04-13T15:48:27.235Z,11
2023-04-13T15:49:34.217Z,11
2023-04-13T15:50:41.152Z,10
2023-04-13T15:51:48.123Z,12
2023-04-13T15:52:57.771Z,11
2023-04-13T15:54:04.734Z,13
2023-04-13T15:55:11.738Z,12
2023-04-13T15:56:18.498Z,13
2023-04-13T15:57:25.559Z,16
2023-04-13T15:58:32.427Z,13
2023-04-13T15:59:39.222Z,13
2023-04-13T16:00:46.076Z,14
2023-04-13T16:02:03.411Z,12
2023-04-13T16:03:10.195Z,14
2023-04-13T16:04:18.273Z,14
2023-04-13T16:05:25.141Z,12
2023-04-13T16:06:32.068Z,10
2023-04-13T16:07:39.175Z,13
2023-04-13T16:08:46.065Z,13
2023-04-13T16:09:54.835Z,13
2023-04-13T16:11:01.748Z,10
2023-04-13T16:12:08.575Z,10
2023-04-13T16:13:15.489Z,9
2023-04-13T16:14:22.356Z,9
2023-04-13T16:15:29.246Z,9